createdAt,value
2018-07-16T00:02:29.508Z,8.07
2018-07-16T00:07:26.565Z,8.40
2018-07-16T00:12:23.776Z,8.13
2018-07-16T00:17:20.937Z,7.37
2018-07-16T00:22:17.655Z,8.33
2018-07-16T00:27:14.615Z,8.07
2018-07-16T00:32:11.577Z,7.93
2018-07-16T00:37:08.382Z,7.93
2018-07-16T00:42:05.330Z,8.27
2018-07-16T00:47:02.388Z,8.10
2018-07-16T00:51:59.577Z,8.07
2018-07-16T00:56:56.571Z,9.23
2018-07-16T01:01:53.491Z,8.27
2018-07-16T01:06:50.028Z,9.80
2018-07-16T01:11:47.195Z,7.77
2018-07-16T01:16:44.184Z,8.87
2018-07-16T01:21:40.981Z,9.67
2018-07-16T01:26:37.938Z,8.17
2018-07-16T01:31:35.575Z,8.03
2018-07-16T01:36:32.387Z,8.13
2018-07-16T01:41:29.323Z,8.40
2018-07-16T01:46:26.302Z,8.50
2018-07-16T01:51:23.066Z,8.80
2018-07-16T01:56:20.509Z,8.70
2018-07-16T02:01:17.320Z,7.97
2018-07-16T02:06:15.084Z,8.03
2018-07-16T02:11:12.338Z,8.67
2018-07-16T02:16:09.063Z,8.70
2018-07-16T02:21:06.255Z,8.53
2018-07-16T02:26:03.243Z,8.97
2018-07-16T02:31:00.989Z,8.53
2018-07-16T02:35:57.786Z,9.37
2018-07-16T02:40:54.758Z,10.43
2018-07-16T02:45:51.479Z,9.50
2018-07-16T02:50:48.659Z,8.87
2018-07-16T02:55:45.685Z,9.70
2018-07-16T03:00:42.640Z,9.37
2018-07-16T03:05:39.457Z,10.90
2018-07-16T03:10:36.377Z,9.57
2018-07-16T03:15:33.291Z,9.47
2018-07-16T03:20:30.753Z,10.17
2018-07-16T03:25:28.061Z,11.07
2018-07-16T03:30:24.808Z,9.40
2018-07-16T03:35:21.849Z,9.50
2018-07-16T03:40:18.620Z,9.47
2018-07-16T03:45:15.631Z,10.07
2018-07-16T03:50:12.451Z,11.27
2018-07-16T03:55:09.375Z,12.77
2018-07-16T04:00:06.163Z,12.73
2018-07-16T04:05:03.025Z,12.90
2018-07-16T04:09:59.884Z,13.50
2018-07-16T04:14:56.860Z,12.53
2018-07-16T04:19:53.897Z,12.63
2018-07-16T04:24:56.218Z,12.57
2018-07-16T04:29:52.955Z,12.70
2018-07-16T04:34:49.943Z,11.50
2018-07-16T04:39:46.927Z,12.17
2018-07-16T04:44:43.912Z,11.17
2018-07-16T04:49:40.767Z,13.00
2018-07-16T04:54:44.541Z,11.43
2018-07-16T04:59:41.328Z,14.27
2018-07-16T05:04:38.375Z,11.73
2018-07-16T05:09:35.175Z,16.90
2018-07-16T05:14:32.418Z,10.73
2018-07-16T05:19:29.786Z,10.90
2018-07-16T05:24:26.839Z,11.07
2018-07-16T05:29:23.580Z,11.37
2018-07-16T05:34:20.559Z,13.87
2018-07-16T05:39:17.351Z,13.03
2018-07-16T05:44:14.338Z,10.97
2018-07-16T05:49:11.170Z,14.45
2018-07-16T05:54:08.336Z,14.30
2018-07-16T05:59:05.873Z,13.38
2018-07-16T06:04:02.728Z,12.37
2018-07-16T06:08:59.794Z,12.43
2018-07-16T06:13:56.720Z,12.75
2018-07-16T06:18:53.832Z,13.00
2018-07-16T06:23:51.183Z,11.63
2018-07-16T06:28:48.583Z,12.53
2018-07-16T06:33:45.377Z,11.78
2018-07-16T06:38:42.396Z,11.18
2018-07-16T06:43:39.197Z,10.65
2018-07-16T06:48:36.258Z,10.32
2018-07-16T06:53:33.044Z,9.93
2018-07-16T06:58:30.038Z,9.85
2018-07-16T07:03:26.721Z,9.28
2018-07-16T07:08:23.669Z,8.00
2018-07-16T07:13:20.441Z,8.08
2018-07-16T07:18:17.405Z,7.83
2018-07-16T07:23:14.044Z,8.58
2018-07-16T07:28:11.032Z,8.53
2018-07-16T07:33:07.776Z,8.15
2018-07-16T07:38:04.749Z,7.25
2018-07-16T07:43:01.788Z,7.75
2018-07-16T07:47:58.733Z,7.35
2018-07-16T07:52:55.653Z,7.12
2018-07-16T07:57:52.375Z,9.83
2018-07-16T08:02:49.421Z,6.33
2018-07-16T08:07:46.311Z,8.88
2018-07-16T08:12:43.349Z,6.55
2018-07-16T08:17:40.423Z,7.30
2018-07-16T08:22:37.266Z,5.55
2018-07-16T08:27:34.951Z,7.58
2018-07-16T08:32:32.009Z,7.40
2018-07-16T08:37:28.760Z,12.33
2018-07-16T08:42:25.769Z,7.20
2018-07-16T08:47:23.521Z,7.60
2018-07-16T08:52:20.465Z,6.00
2018-07-16T08:57:17.166Z,5.87
2018-07-16T09:02:14.185Z,6.03
2018-07-16T09:07:11.017Z,5.53
2018-07-16T09:12:08.220Z,6.08
2018-07-16T09:17:04.991Z,5.33
2018-07-16T09:22:02.263Z,5.45
2018-07-16T09:26:58.996Z,6.03
2018-07-16T09:31:56.481Z,5.87
2018-07-16T09:36:53.436Z,5.78
2018-07-16T09:41:50.423Z,8.40
2018-07-16T09:46:47.135Z,8.28
2018-07-16T09:51:44.148Z,5.37
2018-07-16T09:56:41.080Z,5.40
2018-07-16T10:01:43.580Z,5.67
2018-07-16T10:06:40.258Z,6.72
2018-07-16T10:11:37.287Z,5.03
2018-07-16T10:16:34.032Z,5.92
2018-07-16T10:21:31.040Z,6.08
2018-07-16T10:26:28.041Z,5.37
2018-07-16T10:31:25.272Z,4.80
2018-07-16T10:36:22.099Z,4.55
2018-07-16T10:41:19.087Z,4.72
2018-07-16T10:46:15.844Z,4.78
2018-07-16T10:51:13.013Z,4.87
2018-07-16T10:56:09.733Z,5.70
2018-07-16T11:01:07.759Z,4.58
2018-07-16T11:06:10.449Z,4.90
2018-07-16T11:11:07.501Z,6.80
2018-07-16T11:16:04.694Z,5.35
2018-07-16T11:21:01.588Z,6.08
2018-07-16T11:25:58.400Z,5.83
2018-07-16T11:30:55.773Z,4.30
2018-07-16T11:35:52.945Z,4.37
2018-07-16T11:40:50.202Z,4.92
2018-07-16T11:45:47.302Z,4.35
2018-07-16T11:50:44.072Z,3.90
2018-07-16T11:55:41.194Z,4.37
2018-07-16T12:00:37.944Z,6.60
2018-07-16T12:05:35.219Z,3.87
2018-07-16T12:10:31.971Z,4.72
2018-07-16T12:15:29.028Z,7.28
2018-07-16T12:20:25.816Z,5.25
2018-07-16T12:25:22.761Z,6.08
2018-07-16T12:30:19.492Z,4.15
2018-07-16T12:35:17.332Z,6.15
2018-07-16T12:40:14.284Z,3.25
2018-07-16T12:45:11.233Z,3.33
2018-07-16T12:50:07.978Z,2.80
2018-07-16T12:55:05.320Z,3.42
2018-07-16T13:00:02.365Z,2.60
2018-07-16T13:04:59.311Z,3.30
2018-07-16T13:09:56.437Z,7.72
2018-07-16T13:14:53.392Z,2.90
2018-07-16T13:19:50.677Z,2.67
2018-07-16T13:24:47.377Z,5.17
2018-07-16T13:29:44.795Z,3.37
2018-07-16T13:34:41.537Z,3.27
2018-07-16T13:39:39.498Z,4.22
2018-07-16T13:44:36.229Z,6.22
2018-07-16T13:49:33.171Z,3.87
2018-07-16T13:54:29.901Z,3.98
2018-07-16T13:59:27.005Z,4.03
2018-07-16T14:04:23.743Z,4.92
2018-07-16T14:09:20.839Z,3.67
2018-07-16T14:14:17.769Z,8.23
2018-07-16T14:19:14.924Z,3.60
2018-07-16T14:24:11.678Z,3.75
2018-07-16T14:29:08.762Z,4.78
2018-07-16T14:34:05.428Z,4.60
2018-07-16T14:39:02.480Z,4.78
2018-07-16T14:43:59.470Z,3.80
2018-07-16T14:48:56.703Z,3.85
2018-07-16T14:53:53.527Z,7.15
2018-07-16T14:58:50.533Z,5.85
2018-07-16T15:03:47.267Z,4.47
2018-07-16T15:08:44.259Z,3.87
2018-07-16T15:13:40.971Z,6.05
2018-07-16T15:18:38.068Z,4.62
2018-07-16T15:23:34.835Z,4.60
2018-07-16T15:28:31.553Z,7.78
2018-07-16T15:33:28.442Z,6.72
2018-07-16T15:38:25.420Z,5.45
2018-07-16T15:43:22.373Z,3.70
2018-07-16T15:48:19.476Z,4.62
2018-07-16T15:53:16.427Z,12.82
2018-07-16T15:58:13.617Z,11.83
2018-07-16T16:03:10.354Z,3.30
2018-07-16T16:08:07.379Z,5.15
2018-07-16T16:13:04.202Z,4.03
2018-07-16T16:18:01.239Z,5.78
2018-07-16T16:22:58.470Z,4.83
2018-07-16T16:27:55.294Z,4.90
2018-07-16T16:32:52.505Z,5.95
2018-07-16T16:37:49.744Z,4.33
2018-07-16T16:42:46.628Z,3.77
2018-07-16T16:47:43.911Z,4.83
2018-07-16T16:52:40.739Z,40.63
2018-07-16T16:57:37.787Z,4.40
2018-07-16T17:02:35.333Z,6.17
2018-07-16T17:07:32.373Z,10.18
2018-07-16T17:12:29.271Z,5.10
2018-07-16T17:17:26.196Z,3.80
2018-07-16T17:22:22.970Z,4.67
2018-07-16T17:27:21.384Z,4.62
2018-07-16T17:32:18.379Z,5.60
2018-07-16T17:37:15.387Z,4.33
2018-07-16T17:42:12.230Z,3.95
2018-07-16T17:47:09.635Z,3.72
2018-07-16T17:52:06.501Z,6.97
2018-07-16T17:57:03.814Z,3.90
2018-07-16T18:02:01.490Z,4.97
2018-07-16T18:06:59.240Z,4.40
2018-07-16T18:11:56.125Z,4.67
2018-07-16T18:16:53.279Z,8.15
2018-07-16T18:21:50.171Z,8.03
2018-07-16T18:26:47.334Z,5.65
2018-07-16T18:31:44.163Z,4.85
2018-07-16T18:36:41.427Z,6.50
2018-07-16T18:41:38.395Z,5.20
2018-07-16T18:46:35.600Z,8.55
2018-07-16T18:51:32.459Z,5.72
2018-07-16T18:56:29.923Z,8.85
2018-07-16T19:01:26.845Z,9.20
2018-07-16T19:06:24.064Z,6.95
2018-07-16T19:11:20.819Z,5.53
2018-07-16T19:16:17.808Z,7.90
2018-07-16T19:21:14.766Z,8.93
2018-07-16T19:26:11.425Z,6.85
2018-07-16T19:31:08.799Z,8.20
2018-07-16T19:36:05.503Z,10.80
2018-07-16T19:41:02.496Z,8.88
2018-07-16T19:45:59.178Z,6.78
2018-07-16T19:50:56.325Z,8.03
2018-07-16T19:55:53.048Z,8.08
2018-07-16T20:00:49.945Z,11.43
2018-07-16T20:05:46.954Z,10.65
2018-07-16T20:10:44.121Z,9.20
2018-07-16T20:15:41.385Z,10.88
2018-07-16T20:20:43.611Z,11.20
2018-07-16T20:25:40.553Z,7.65
2018-07-16T20:30:37.360Z,8.48
2018-07-16T20:35:34.229Z,9.03
2018-07-16T20:40:31.670Z,35.98
2018-07-16T20:45:28.764Z,36.30
2018-07-16T20:50:25.689Z,30.37
2018-07-16T20:55:22.682Z,29.90
2018-07-16T21:00:20.322Z,17.33
2018-07-16T21:05:17.010Z,9.23
2018-07-16T21:10:14.177Z,9.90
2018-07-16T21:15:11.232Z,9.40
2018-07-16T21:20:09.377Z,8.57
2018-07-16T21:25:07.321Z,10.38
2018-07-16T21:30:04.666Z,10.00
2018-07-16T21:35:01.653Z,9.03
2018-07-16T21:39:58.437Z,11.70
2018-07-16T21:44:56.103Z,17.67
2018-07-16T21:49:52.862Z,10.80
2018-07-16T21:54:49.909Z,10.33
2018-07-16T21:59:46.625Z,10.43
2018-07-16T22:04:43.828Z,9.97
2018-07-16T22:09:40.493Z,12.43
2018-07-16T22:14:37.543Z,9.73
2018-07-16T22:19:34.273Z,10.23
2018-07-16T22:24:31.278Z,10.87
2018-07-16T22:29:27.955Z,11.03
2018-07-16T22:34:24.907Z,10.27
2018-07-16T22:39:21.583Z,10.37
2018-07-16T22:44:18.829Z,11.17
2018-07-16T22:49:15.994Z,10.73
2018-07-16T22:54:12.668Z,10.80
2018-07-16T22:59:09.711Z,10.67
2018-07-16T23:04:06.474Z,11.30
2018-07-16T23:09:03.828Z,10.70
2018-07-16T23:14:00.873Z,11.70
2018-07-16T23:18:57.845Z,11.47
2018-07-16T23:23:54.562Z,12.20
2018-07-16T23:28:51.497Z,12.47
2018-07-16T23:33:48.423Z,13.10
2018-07-16T23:38:45.242Z,12.20
2018-07-16T23:43:43.087Z,11.77
2018-07-16T23:48:40.178Z,11.83
2018-07-16T23:53:37.083Z,13.10
2018-07-16T23:58:33.891Z,13.50
